GLD352 SGAS-SAEZ
Flight info
| Callsign | GLD352 |
|---|---|
| Flight time | N/A |
| Altitude | 34000 |
| Route | ITAPE ASATI UP526 GEMSU UN785 GUA UZ129 PAGON PAGO7X |
| Aircraft | B77W/H-SDFGIRY/S |
Departure
| Time | 2026-04-23 15:18 |
|---|---|
| Airport | Silvio Pettirossi International Airport (SGAS) |
Arrival
| Time | N/A |
|---|---|
| Airport | Ezeiza International Airport - Ministro Pistarini (SAEZ) |
| Time | Latitude | Longitude | Altitude | Speed | Heading |
|---|---|---|---|---|---|
| 2026-04-23 14:50 | -25.24125 | -57.51500 | 283 ft | 0 kts | 108° |
| 2026-04-23 14:54 | -25.24125 | -57.51501 | 283 ft | 0 kts | 108° |
| 2026-04-23 15:07 | -25.24122 | -57.51511 | 283 ft | 4 kts | 108° |
| 2026-04-23 15:07 | -25.24113 | -57.51540 | 290 ft | 4 kts | 109° |
| 2026-04-23 15:07 | -25.24104 | -57.51567 | 292 ft | 4 kts | 116° |
| 2026-04-23 15:07 | -25.24091 | -57.51592 | 292 ft | 4 kts | 133° |
| 2026-04-23 15:08 | -25.24076 | -57.51605 | 292 ft | 4 kts | 170° |
| 2026-04-23 15:08 | -25.24068 | -57.51607 | 294 ft | 7 kts | 192° |
| 2026-04-23 15:14 | -25.24137 | -57.51625 | 283 ft | 24 kts | 193° |
| 2026-04-23 15:14 | -25.24313 | -57.51678 | 283 ft | 27 kts | 236° |
| 2026-04-23 15:15 | -25.24444 | -57.51800 | 284 ft | 28 kts | 187° |
| 2026-04-23 15:15 | -25.24633 | -57.51845 | 284 ft | 28 kts | 193° |
| 2026-04-23 15:15 | -25.24821 | -57.51896 | 284 ft | 28 kts | 193° |
| 2026-04-23 15:15 | -25.25010 | -57.51952 | 284 ft | 28 kts | 201° |
| 2026-04-23 15:16 | -25.25195 | -57.52000 | 284 ft | 28 kts | 188° |
| 2026-04-23 15:16 | -25.25386 | -57.52032 | 284 ft | 28 kts | 193° |
| 2026-04-23 15:16 | -25.25478 | -57.52188 | 295 ft | 27 kts | 275° |
| 2026-04-23 15:16 | -25.25367 | -57.52249 | 297 ft | 0 kts | 9° |
| 2026-04-23 15:17 | -25.25339 | -57.52243 | 294 ft | 5 kts | 9° |
| 2026-04-23 15:17 | -25.25074 | -57.52166 | 291 ft | 89 kts | 12° |
| 2026-04-23 15:17 | -25.24119 | -57.51937 | 286 ft | 189 kts | 13° |
| 2026-04-23 15:17 | -25.22588 | -57.51574 | 571 ft | 246 kts | 11° |
| 2026-04-23 15:18 | -25.20872 | -57.51249 | 1911 ft | 257 kts | 7° |
| 2026-04-23 15:18 | -25.18975 | -57.51004 | 2942 ft | 292 kts | 8° |
| 2026-04-23 15:18 | -25.16844 | -57.50554 | 3682 ft | 332 kts | 14° |
| 2026-04-23 15:18 | -25.14523 | -57.49749 | 4454 ft | 366 kts | 20° |
| 2026-04-23 15:19 | -25.12231 | -57.48671 | 4478 ft | 347 kts | 25° |
| 2026-04-23 15:19 | -25.10125 | -57.47419 | 3678 ft | 340 kts | 30° |
| 2026-04-23 15:19 | -25.08308 | -57.45866 | 3445 ft | 311 kts | 52° |
| 2026-04-23 15:19 | -25.07676 | -57.43892 | 4480 ft | 254 kts | 84° |
| 2026-04-23 15:20 | -25.07763 | -57.42611 | 4093 ft | 259 kts | 101° |
| 2026-04-23 15:20 | -25.09030 | -57.40108 | 2679 ft | 307 kts | 131° |
| 2026-04-23 15:20 | -25.10824 | -57.38577 | 2347 ft | 337 kts | 152° |
| 2026-04-23 15:20 | -25.12805 | -57.37818 | 5223 ft | 263 kts | 169° |
| 2026-04-23 15:21 | -25.14390 | -57.37717 | 8046 ft | 219 kts | 184° |
| 2026-04-23 15:21 | -25.16074 | -57.37948 | 8207 ft | 278 kts | 193° |
| 2026-04-23 15:21 | -25.18245 | -57.38623 | 7085 ft | 370 kts | 199° |
| 2026-04-23 15:21 | -25.20970 | -57.39605 | 5922 ft | 449 kts | 199° |
| 2026-04-23 15:22 | -25.22617 | -57.40171 | 6331 ft | 330 kts | 198° |
| 2026-04-23 15:22 | -25.23380 | -57.40414 | 5772 ft | 337 kts | 197° |